Vlaardingen, Netherlands
Current Conditions -  °F | °C
As of 5:55 PM on Thursday 27 Nov 2014 (Local Time) from EHRD Reporting Station
Drizzle Drizzle  
Wind Chill: 41°   Ceiling: Unl
Heat Index: 46°   Visibility: 3mi
Dew Point: 45°   Wind: 10mph
Humidity: 93%   Direction: 100°E
Pressure: 29.68"   Gusts: NA
Location:  51.92°N, 4.32°E
Report Text: EHRD 271655Z AUTO 10009KT 5000 -DZ FEW049 08/07 Q1005 REDZTEMPO BKN009
Loading
Personal Weather Stations






























Interactive Weather Map New forecast layout! Learn more

10-Day Weather Forecast

Advertisements
Track Severe Weather on mobile